sensor_id;sensor_type;location;lat;lon;timestamp;P1;durP1;ratioP1;P2;durP2;ratioP2
18499;SDS011;9379;52.134;11.576;2023-11-19T00:01:00;5.25;;;4.85;;
18499;SDS011;9379;52.134;11.576;2023-11-19T00:03:30;5.78;;;5.20;;
18499;SDS011;9379;52.134;11.576;2023-11-19T00:06:00;8.90;;;4.65;;
18499;SDS011;9379;52.134;11.576;2023-11-19T00:08:26;4.90;;;4.50;;
18499;SDS011;9379;52.134;11.576;2023-11-19T00:10:53;8.15;;;5.38;;
18499;SDS011;9379;52.134;11.576;2023-11-19T00:13:20;5.95;;;5.03;;
18499;SDS011;9379;52.134;11.576;2023-11-19T00:15:48;6.20;;;5.57;;
18499;SDS011;9379;52.134;11.576;2023-11-19T00:18:15;5.97;;;5.22;;
18499;SDS011;9379;52.134;11.576;2023-11-19T00:20:42;10.52;;;5.57;;
18499;SDS011;9379;52.134;11.576;2023-11-19T00:23:11;6.07;;;5.55;;
18499;SDS011;9379;52.134;11.576;2023-11-19T00:25:38;5.32;;;4.63;;
18499;SDS011;9379;52.134;11.576;2023-11-19T00:28:05;8.85;;;5.22;;
18499;SDS011;9379;52.134;11.576;2023-11-19T00:30:31;5.65;;;3.55;;
18499;SDS011;9379;52.134;11.576;2023-11-19T00:32:59;4.35;;;4.03;;
18499;SDS011;9379;52.134;11.576;2023-11-19T00:35:25;4.97;;;4.38;;
18499;SDS011;9379;52.134;11.576;2023-11-19T00:37:52;3.97;;;3.58;;
18499;SDS011;9379;52.134;11.576;2023-11-19T00:40:21;4.35;;;3.70;;
18499;SDS011;9379;52.134;11.576;2023-11-19T00:42:48;4.80;;;4.25;;
18499;SDS011;9379;52.134;11.576;2023-11-19T00:45:15;4.65;;;4.25;;
18499;SDS011;9379;52.134;11.576;2023-11-19T00:47:42;4.03;;;3.72;;
18499;SDS011;9379;52.134;11.576;2023-11-19T00:50:09;4.95;;;4.50;;
18499;SDS011;9379;52.134;11.576;2023-11-19T00:52:37;3.95;;;3.65;;
18499;SDS011;9379;52.134;11.576;2023-11-19T00:55:05;4.45;;;3.47;;
18499;SDS011;9379;52.134;11.576;2023-11-19T00:57:34;5.93;;;3.35;;
18499;SDS011;9379;52.134;11.576;2023-11-19T01:00:01;3.22;;;2.92;;
18499;SDS011;9379;52.134;11.576;2023-11-19T01:02:34;3.88;;;3.45;;
18499;SDS011;9379;52.134;11.576;2023-11-19T01:05:01;2.97;;;2.58;;
18499;SDS011;9379;52.134;11.576;2023-11-19T01:07:27;3.35;;;3.10;;
18499;SDS011;9379;52.134;11.576;2023-11-19T01:09:54;3.38;;;3.10;;
18499;SDS011;9379;52.134;11.576;2023-11-19T01:12:21;3.38;;;3.08;;
18499;SDS011;9379;52.134;11.576;2023-11-19T01:14:50;3.30;;;2.70;;
18499;SDS011;9379;52.134;11.576;2023-11-19T01:17:16;3.65;;;3.45;;
18499;SDS011;9379;52.134;11.576;2023-11-19T01:19:43;3.75;;;3.38;;
18499;SDS011;9379;52.134;11.576;2023-11-19T01:22:10;2.78;;;2.58;;
18499;SDS011;9379;52.134;11.576;2023-11-19T01:24:37;2.58;;;2.47;;
18499;SDS011;9379;52.134;11.576;2023-11-19T01:27:04;2.85;;;2.65;;
18499;SDS011;9379;52.134;11.576;2023-11-19T01:29:31;8.75;;;3.47;;
18499;SDS011;9379;52.134;11.576;2023-11-19T01:31:59;3.20;;;2.90;;
18499;SDS011;9379;52.134;11.576;2023-11-19T01:34:26;2.85;;;2.65;;
18499;SDS011;9379;52.134;11.576;2023-11-19T01:36:53;2.75;;;2.55;;
18499;SDS011;9379;52.134;11.576;2023-11-19T01:39:20;3.60;;;2.35;;
18499;SDS011;9379;52.134;11.576;2023-11-19T01:41:47;2.88;;;2.67;;
18499;SDS011;9379;52.134;11.576;2023-11-19T01:44:14;2.70;;;2.50;;
18499;SDS011;9379;52.134;11.576;2023-11-19T01:46:41;2.25;;;2.05;;
18499;SDS011;9379;52.134;11.576;2023-11-19T01:49:11;2.25;;;2.08;;
18499;SDS011;9379;52.134;11.576;2023-11-19T01:51:42;3.40;;;2.63;;
18499;SDS011;9379;52.134;11.576;2023-11-19T01:54:09;2.97;;;2.78;;
18499;SDS011;9379;52.134;11.576;2023-11-19T01:56:37;5.00;;;2.38;;
18499;SDS011;9379;52.134;11.576;2023-11-19T01:59:06;2.50;;;2.30;;
18499;SDS011;9379;52.134;11.576;2023-11-19T02:01:34;2.33;;;2.22;;
18499;SDS011;9379;52.134;11.576;2023-11-19T02:04:04;2.10;;;2.00;;
18499;SDS011;9379;52.134;11.576;2023-11-19T02:06:34;3.72;;;3.42;;
18499;SDS011;9379;52.134;11.576;2023-11-19T02:09:03;2.22;;;1.95;;
18499;SDS011;9379;52.134;11.576;2023-11-19T02:11:33;6.32;;;2.33;;
18499;SDS011;9379;52.134;11.576;2023-11-19T02:14:00;2.10;;;1.90;;
18499;SDS011;9379;52.134;11.576;2023-11-19T02:16:29;2.30;;;2.17;;
18499;SDS011;9379;52.134;11.576;2023-11-19T02:18:56;1.60;;;1.50;;
18499;SDS011;9379;52.134;11.576;2023-11-19T02:21:22;3.10;;;2.90;;
18499;SDS011;9379;52.134;11.576;2023-11-19T02:23:51;2.20;;;2.10;;
18499;SDS011;9379;52.134;11.576;2023-11-19T02:26:18;2.25;;;2.15;;
18499;SDS011;9379;52.134;11.576;2023-11-19T02:28:52;2.13;;;1.90;;
18499;SDS011;9379;52.134;11.576;2023-11-19T02:31:19;2.20;;;2.05;;
18499;SDS011;9379;52.134;11.576;2023-11-19T02:33:45;2.20;;;2.05;;
18499;SDS011;9379;52.134;11.576;2023-11-19T02:36:12;1.73;;;1.63;;
18499;SDS011;9379;52.134;11.576;2023-11-19T02:38:39;2.00;;;1.90;;
18499;SDS011;9379;52.134;11.576;2023-11-19T02:41:06;1.73;;;1.63;;
18499;SDS011;9379;52.134;11.576;2023-11-19T02:43:35;1.25;;;1.25;;
18499;SDS011;9379;52.134;11.576;2023-11-19T02:46:05;1.98;;;1.83;;
18499;SDS011;9379;52.134;11.576;2023-11-19T02:48:33;1.58;;;1.48;;
18499;SDS011;9379;52.134;11.576;2023-11-19T02:51:01;1.80;;;1.67;;
18499;SDS011;9379;52.134;11.576;2023-11-19T02:53:29;2.25;;;2.15;;
18499;SDS011;9379;52.134;11.576;2023-11-19T02:55:56;2.17;;;1.92;;
18499;SDS011;9379;52.134;11.576;2023-11-19T02:58:31;2.70;;;2.17;;
18499;SDS011;9379;52.134;11.576;2023-11-19T03:00:59;2.45;;;2.15;;
18499;SDS011;9379;52.134;11.576;2023-11-19T03:03:37;1.95;;;1.85;;
18499;SDS011;9379;52.134;11.576;2023-11-19T03:06:05;1.85;;;1.75;;
18499;SDS011;9379;52.134;11.576;2023-11-19T03:08:35;2.40;;;2.20;;
18499;SDS011;9379;52.134;11.576;2023-11-19T03:11:02;1.40;;;1.27;;
18499;SDS011;9379;52.134;11.576;2023-11-19T03:13:30;2.47;;;2.28;;
18499;SDS011;9379;52.134;11.576;2023-11-19T03:15:57;1.98;;;1.80;;
18499;SDS011;9379;52.134;11.576;2023-11-19T03:18:24;2.88;;;2.67;;
18499;SDS011;9379;52.134;11.576;2023-11-19T03:20:53;1.73;;;1.63;;
18499;SDS011;9379;52.134;11.576;2023-11-19T03:23:20;6.03;;;2.30;;
18499;SDS011;9379;52.134;11.576;2023-11-19T03:25:48;2.67;;;2.05;;
18499;SDS011;9379;52.134;11.576;2023-11-19T03:28:14;2.10;;;1.65;;
18499;SDS011;9379;52.134;11.576;2023-11-19T03:30:41;2.17;;;1.67;;
18499;SDS011;9379;52.134;11.576;2023-11-19T03:33:08;2.63;;;2.42;;
18499;SDS011;9379;52.134;11.576;2023-11-19T03:35:35;2.10;;;2.00;;
18499;SDS011;9379;52.134;11.576;2023-11-19T03:38:04;2.78;;;1.90;;
18499;SDS011;9379;52.134;11.576;2023-11-19T03:40:30;2.50;;;2.30;;
18499;SDS011;9379;52.134;11.576;2023-11-19T03:42:58;1.98;;;1.88;;
18499;SDS011;9379;52.134;11.576;2023-11-19T03:45:25;1.90;;;1.80;;
18499;SDS011;9379;52.134;11.576;2023-11-19T03:47:52;2.33;;;1.77;;
18499;SDS011;9379;52.134;11.576;2023-11-19T03:50:19;1.52;;;1.42;;
18499;SDS011;9379;52.134;11.576;2023-11-19T03:52:46;2.22;;;2.03;;
18499;SDS011;9379;52.134;11.576;2023-11-19T03:55:15;2.20;;;1.52;;
18499;SDS011;9379;52.134;11.576;2023-11-19T03:57:41;2.08;;;1.98;;
18499;SDS011;9379;52.134;11.576;2023-11-19T04:00:09;2.15;;;1.95;;
18499;SDS011;9379;52.134;11.576;2023-11-19T04:02:39;2.60;;;2.40;;
18499;SDS011;9379;52.134;11.576;2023-11-19T04:05:06;3.20;;;2.10;;
18499;SDS011;9379;52.134;11.576;2023-11-19T04:07:34;1.60;;;1.50;;
18499;SDS011;9379;52.134;11.576;2023-11-19T04:10:02;1.35;;;1.35;;
18499;SDS011;9379;52.134;11.576;2023-11-19T04:12:30;2.10;;;1.73;;
18499;SDS011;9379;52.134;11.576;2023-11-19T04:14:57;2.10;;;2.00;;
18499;SDS011;9379;52.134;11.576;2023-11-19T04:17:24;1.70;;;1.50;;
18499;SDS011;9379;52.134;11.576;2023-11-19T04:19:51;2.05;;;1.92;;
18499;SDS011;9379;52.134;11.576;2023-11-19T04:22:17;1.63;;;1.52;;
18499;SDS011;9379;52.134;11.576;2023-11-19T04:24:44;4.63;;;1.80;;
18499;SDS011;9379;52.134;11.576;2023-11-19T04:27:11;1.52;;;1.42;;
18499;SDS011;9379;52.134;11.576;2023-11-19T04:29:40;1.55;;;1.45;;
18499;SDS011;9379;52.134;11.576;2023-11-19T04:32:07;1.70;;;1.60;;
18499;SDS011;9379;52.134;11.576;2023-11-19T04:34:34;1.98;;;1.88;;
18499;SDS011;9379;52.134;11.576;2023-11-19T04:37:02;1.55;;;1.45;;
18499;SDS011;9379;52.134;11.576;2023-11-19T04:39:29;1.85;;;1.75;;
18499;SDS011;9379;52.134;11.576;2023-11-19T04:41:56;1.60;;;1.50;;
18499;SDS011;9379;52.134;11.576;2023-11-19T04:44:24;1.30;;;1.20;;
18499;SDS011;9379;52.134;11.576;2023-11-19T04:46:53;1.80;;;1.70;;
18499;SDS011;9379;52.134;11.576;2023-11-19T04:49:19;1.65;;;1.55;;
18499;SDS011;9379;52.134;11.576;2023-11-19T04:51:46;1.45;;;1.35;;
18499;SDS011;9379;52.134;11.576;2023-11-19T04:54:13;1.33;;;1.27;;
18499;SDS011;9379;52.134;11.576;2023-11-19T04:56:40;1.23;;;1.20;;
18499;SDS011;9379;52.134;11.576;2023-11-19T04:59:11;1.20;;;1.20;;
18499;SDS011;9379;52.134;11.576;2023-11-19T05:01:38;0.85;;;0.85;;
18499;SDS011;9379;52.134;11.576;2023-11-19T05:04:06;1.08;;;1.08;;
18499;SDS011;9379;52.134;11.576;2023-11-19T05:06:33;2.50;;;1.67;;
18499;SDS011;9379;52.134;11.576;2023-11-19T05:09:00;1.15;;;1.15;;
18499;SDS011;9379;52.134;11.576;2023-11-19T05:11:29;1.05;;;1.05;;
18499;SDS011;9379;52.134;11.576;2023-11-19T05:13:56;2.28;;;0.80;;
18499;SDS011;9379;52.134;11.576;2023-11-19T05:16:23;0.80;;;0.80;;
18499;SDS011;9379;52.134;11.576;2023-11-19T05:18:50;0.90;;;0.90;;
18499;SDS011;9379;52.134;11.576;2023-11-19T05:21:18;0.80;;;0.80;;
18499;SDS011;9379;52.134;11.576;2023-11-19T05:23:45;0.70;;;0.70;;
18499;SDS011;9379;52.134;11.576;2023-11-19T05:26:17;0.80;;;0.80;;
18499;SDS011;9379;52.134;11.576;2023-11-19T05:28:45;0.80;;;0.80;;
18499;SDS011;9379;52.134;11.576;2023-11-19T05:31:13;0.70;;;0.70;;
18499;SDS011;9379;52.134;11.576;2023-11-19T05:33:40;0.60;;;0.60;;
18499;SDS011;9379;52.134;11.576;2023-11-19T05:36:07;0.60;;;0.60;;
18499;SDS011;9379;52.134;11.576;2023-11-19T05:38:36;0.60;;;0.60;;
18499;SDS011;9379;52.134;11.576;2023-11-19T05:41:03;0.75;;;0.75;;
18499;SDS011;9379;52.134;11.576;2023-11-19T05:43:31;0.80;;;0.80;;
18499;SDS011;9379;52.134;11.576;2023-11-19T05:45:58;0.88;;;0.88;;
18499;SDS011;9379;52.134;11.576;2023-11-19T05:48:25;0.50;;;0.50;;
18499;SDS011;9379;52.134;11.576;2023-11-19T05:50:52;0.77;;;0.75;;
18499;SDS011;9379;52.134;11.576;2023-11-19T05:53:21;1.25;;;1.15;;
18499;SDS011;9379;52.134;11.576;2023-11-19T05:55:51;0.80;;;0.80;;
18499;SDS011;9379;52.134;11.576;2023-11-19T05:58:22;0.90;;;0.90;;
18499;SDS011;9379;52.134;11.576;2023-11-19T06:00:53;0.93;;;0.93;;
18499;SDS011;9379;52.134;11.576;2023-11-19T06:03:20;1.40;;;1.05;;
18499;SDS011;9379;52.134;11.576;2023-11-19T06:05:47;0.88;;;0.88;;
18499;SDS011;9379;52.134;11.576;2023-11-19T06:08:14;0.93;;;0.93;;
18499;SDS011;9379;52.134;11.576;2023-11-19T06:10:42;1.10;;;1.10;;
18499;SDS011;9379;52.134;11.576;2023-11-19T06:13:12;0.98;;;0.98;;
18499;SDS011;9379;52.134;11.576;2023-11-19T06:15:40;0.80;;;0.80;;
18499;SDS011;9379;52.134;11.576;2023-11-19T06:18:07;0.70;;;0.70;;
18499;SDS011;9379;52.134;11.576;2023-11-19T06:20:34;1.10;;;1.00;;
18499;SDS011;9379;52.134;11.576;2023-11-19T06:23:01;0.93;;;0.93;;
18499;SDS011;9379;52.134;11.576;2023-11-19T06:25:27;0.82;;;0.82;;
18499;SDS011;9379;52.134;11.576;2023-11-19T06:27:54;0.80;;;0.80;;
18499;SDS011;9379;52.134;11.576;2023-11-19T06:30:23;1.15;;;1.10;;
18499;SDS011;9379;52.134;11.576;2023-11-19T06:32:55;1.15;;;1.05;;
18499;SDS011;9379;52.134;11.576;2023-11-19T06:35:21;0.80;;;0.80;;
18499;SDS011;9379;52.134;11.576;2023-11-19T06:37:49;0.63;;;0.63;;
18499;SDS011;9379;52.134;11.576;2023-11-19T06:40:16;0.80;;;0.80;;
18499;SDS011;9379;52.134;11.576;2023-11-19T06:42:43;0.75;;;0.70;;
18499;SDS011;9379;52.134;11.576;2023-11-19T06:45:10;0.70;;;0.70;;
18499;SDS011;9379;52.134;11.576;2023-11-19T06:47:38;0.90;;;0.90;;
18499;SDS011;9379;52.134;11.576;2023-11-19T06:50:06;1.20;;;0.80;;
18499;SDS011;9379;52.134;11.576;2023-11-19T06:52:34;0.95;;;0.90;;
18499;SDS011;9379;52.134;11.576;2023-11-19T06:55:02;1.20;;;1.10;;
18499;SDS011;9379;52.134;11.576;2023-11-19T06:57:30;0.50;;;0.50;;
18499;SDS011;9379;52.134;11.576;2023-11-19T06:59:57;0.65;;;0.65;;
18499;SDS011;9379;52.134;11.576;2023-11-19T07:02:24;0.60;;;0.60;;
18499;SDS011;9379;52.134;11.576;2023-11-19T07:04:52;1.27;;;1.27;;
18499;SDS011;9379;52.134;11.576;2023-11-19T07:07:19;0.80;;;0.77;;
18499;SDS011;9379;52.134;11.576;2023-11-19T07:09:46;0.80;;;0.80;;
18499;SDS011;9379;52.134;11.576;2023-11-19T07:12:13;1.38;;;1.27;;
18499;SDS011;9379;52.134;11.576;2023-11-19T07:14:40;1.40;;;1.10;;
18499;SDS011;9379;52.134;11.576;2023-11-19T07:17:08;0.70;;;0.70;;
18499;SDS011;9379;52.134;11.576;2023-11-19T07:19:35;1.20;;;1.20;;
18499;SDS011;9379;52.134;11.576;2023-11-19T07:22:04;7.88;;;1.17;;
18499;SDS011;9379;52.134;11.576;2023-11-19T07:24:32;0.95;;;0.95;;
18499;SDS011;9379;52.134;11.576;2023-11-19T07:26:59;5.88;;;1.17;;
18499;SDS011;9379;52.134;11.576;2023-11-19T07:29:29;1.00;;;1.00;;
18499;SDS011;9379;52.134;11.576;2023-11-19T07:31:56;1.30;;;1.30;;
18499;SDS011;9379;52.134;11.576;2023-11-19T07:34:27;0.90;;;0.90;;
18499;SDS011;9379;52.134;11.576;2023-11-19T07:36:54;1.08;;;0.98;;
18499;SDS011;9379;52.134;11.576;2023-11-19T07:39:23;1.50;;;1.40;;
18499;SDS011;9379;52.134;11.576;2023-11-19T07:41:50;1.15;;;1.10;;
18499;SDS011;9379;52.134;11.576;2023-11-19T07:44:17;2.00;;;1.90;;
18499;SDS011;9379;52.134;11.576;2023-11-19T07:46:44;3.95;;;1.90;;
18499;SDS011;9379;52.134;11.576;2023-11-19T07:49:12;5.78;;;2.42;;
18499;SDS011;9379;52.134;11.576;2023-11-19T07:51:38;2.38;;;1.88;;
18499;SDS011;9379;52.134;11.576;2023-11-19T07:54:06;3.05;;;1.95;;
18499;SDS011;9379;52.134;11.576;2023-11-19T07:56:38;2.65;;;2.15;;
18499;SDS011;9379;52.134;11.576;2023-11-19T07:59:05;1.65;;;1.38;;
18499;SDS011;9379;52.134;11.576;2023-11-19T08:01:31;2.33;;;2.08;;
18499;SDS011;9379;52.134;11.576;2023-11-19T08:04:01;1.85;;;1.75;;
18499;SDS011;9379;52.134;11.576;2023-11-19T08:06:28;1.85;;;1.75;;
18499;SDS011;9379;52.134;11.576;2023-11-19T08:08:55;3.00;;;2.45;;
18499;SDS011;9379;52.134;11.576;2023-11-19T08:11:22;2.63;;;1.98;;
18499;SDS011;9379;52.134;11.576;2023-11-19T08:13:51;2.28;;;2.08;;
18499;SDS011;9379;52.134;11.576;2023-11-19T08:16:17;1.73;;;1.50;;
18499;SDS011;9379;52.134;11.576;2023-11-19T08:18:44;3.03;;;2.28;;
18499;SDS011;9379;52.134;11.576;2023-11-19T08:21:11;5.47;;;2.90;;
18499;SDS011;9379;52.134;11.576;2023-11-19T08:23:38;2.42;;;2.22;;
18499;SDS011;9379;52.134;11.576;2023-11-19T08:26:05;2.22;;;2.03;;
18499;SDS011;9379;52.134;11.576;2023-11-19T08:28:32;3.13;;;2.15;;
18499;SDS011;9379;52.134;11.576;2023-11-19T08:31:01;3.80;;;2.25;;
18499;SDS011;9379;52.134;11.576;2023-11-19T08:33:29;3.13;;;2.92;;
18499;SDS011;9379;52.134;11.576;2023-11-19T08:35:56;2.03;;;1.80;;
18499;SDS011;9379;52.134;11.576;2023-11-19T08:38:23;2.17;;;1.98;;
18499;SDS011;9379;52.134;11.576;2023-11-19T08:40:50;1.85;;;1.75;;
18499;SDS011;9379;52.134;11.576;2023-11-19T08:43:17;4.20;;;2.25;;
18499;SDS011;9379;52.134;11.576;2023-11-19T08:45:44;5.43;;;2.75;;
18499;SDS011;9379;52.134;11.576;2023-11-19T08:48:13;6.30;;;2.42;;
18499;SDS011;9379;52.134;11.576;2023-11-19T08:50:40;4.90;;;2.72;;
18499;SDS011;9379;52.134;11.576;2023-11-19T08:53:06;40.53;;;18.73;;
18499;SDS011;9379;52.134;11.576;2023-11-19T08:55:33;24.73;;;13.48;;
18499;SDS011;9379;52.134;11.576;2023-11-19T08:58:00;17.55;;;7.45;;
18499;SDS011;9379;52.134;11.576;2023-11-19T09:00:27;11.60;;;8.07;;
18499;SDS011;9379;52.134;11.576;2023-11-19T09:02:55;10.52;;;5.00;;
18499;SDS011;9379;52.134;11.576;2023-11-19T09:05:25;8.80;;;4.25;;
18499;SDS011;9379;52.134;11.576;2023-11-19T09:07:52;5.65;;;3.75;;
18499;SDS011;9379;52.134;11.576;2023-11-19T09:10:18;7.15;;;3.75;;
18499;SDS011;9379;52.134;11.576;2023-11-19T09:12:45;16.08;;;4.07;;
18499;SDS011;9379;52.134;11.576;2023-11-19T09:15:12;3.65;;;2.90;;
18499;SDS011;9379;52.134;11.576;2023-11-19T09:17:39;1.52;;;1.42;;
18499;SDS011;9379;52.134;11.576;2023-11-19T09:20:07;3.92;;;1.88;;
18499;SDS011;9379;52.134;11.576;2023-11-19T09:22:39;3.78;;;3.10;;
18499;SDS011;9379;52.134;11.576;2023-11-19T09:25:06;5.38;;;3.33;;
18499;SDS011;9379;52.134;11.576;2023-11-19T09:27:34;7.30;;;3.30;;
18499;SDS011;9379;52.134;11.576;2023-11-19T09:30:01;2.90;;;1.77;;
18499;SDS011;9379;52.134;11.576;2023-11-19T09:32:29;3.15;;;2.75;;
18499;SDS011;9379;52.134;11.576;2023-11-19T09:34:56;1.92;;;1.80;;
18499;SDS011;9379;52.134;11.576;2023-11-19T09:37:23;6.85;;;4.57;;
18499;SDS011;9379;52.134;11.576;2023-11-19T09:39:51;5.75;;;3.42;;
18499;SDS011;9379;52.134;11.576;2023-11-19T09:42:18;3.63;;;2.35;;
18499;SDS011;9379;52.134;11.576;2023-11-19T09:44:45;2.97;;;2.10;;
18499;SDS011;9379;52.134;11.576;2023-11-19T09:47:14;2.58;;;2.30;;
18499;SDS011;9379;52.134;11.576;2023-11-19T09:49:44;8.52;;;2.35;;
18499;SDS011;9379;52.134;11.576;2023-11-19T09:52:12;5.68;;;1.88;;
18499;SDS011;9379;52.134;11.576;2023-11-19T09:57:34;4.55;;;2.17;;
18499;SDS011;9379;52.134;11.576;2023-11-19T10:00:02;3.15;;;2.83;;
18499;SDS011;9379;52.134;11.576;2023-11-19T10:02:33;10.38;;;4.47;;
18499;SDS011;9379;52.134;11.576;2023-11-19T10:05:02;3.63;;;3.25;;
18499;SDS011;9379;52.134;11.576;2023-11-19T10:07:32;6.85;;;4.50;;
18499;SDS011;9379;52.134;11.576;2023-11-19T10:09:59;10.57;;;5.00;;
18499;SDS011;9379;52.134;11.576;2023-11-19T10:12:28;13.18;;;5.18;;
18499;SDS011;9379;52.134;11.576;2023-11-19T10:14:56;4.50;;;3.55;;
18499;SDS011;9379;52.134;11.576;2023-11-19T10:17:27;9.23;;;4.28;;
18499;SDS011;9379;52.134;11.576;2023-11-19T10:19:55;12.10;;;3.85;;
18499;SDS011;9379;52.134;11.576;2023-11-19T10:22:22;8.40;;;3.13;;
18499;SDS011;9379;52.134;11.576;2023-11-19T10:24:50;5.15;;;3.17;;
18499;SDS011;9379;52.134;11.576;2023-11-19T10:27:17;11.75;;;3.65;;
18499;SDS011;9379;52.134;11.576;2023-11-19T10:29:46;5.32;;;3.40;;
18499;SDS011;9379;52.134;11.576;2023-11-19T10:32:13;18.25;;;5.30;;
18499;SDS011;9379;52.134;11.576;2023-11-19T10:34:41;15.77;;;5.00;;
18499;SDS011;9379;52.134;11.576;2023-11-19T10:37:08;6.80;;;3.65;;
18499;SDS011;9379;52.134;11.576;2023-11-19T10:39:51;10.35;;;5.03;;
18499;SDS011;9379;52.134;11.576;2023-11-19T10:42:19;13.23;;;6.50;;
18499;SDS011;9379;52.134;11.576;2023-11-19T10:44:48;8.23;;;4.57;;
18499;SDS011;9379;52.134;11.576;2023-11-19T10:47:15;8.20;;;4.53;;
18499;SDS011;9379;52.134;11.576;2023-11-19T10:49:44;9.52;;;3.38;;
18499;SDS011;9379;52.134;11.576;2023-11-19T10:52:12;5.50;;;3.80;;
18499;SDS011;9379;52.134;11.576;2023-11-19T10:54:44;9.52;;;3.08;;
18499;SDS011;9379;52.134;11.576;2023-11-19T10:57:18;19.33;;;4.55;;
18499;SDS011;9379;52.134;11.576;2023-11-19T10:59:48;12.93;;;4.38;;
18499;SDS011;9379;52.134;11.576;2023-11-19T11:02:19;4.82;;;2.72;;
18499;SDS011;9379;52.134;11.576;2023-11-19T11:04:50;10.32;;;4.35;;
18499;SDS011;9379;52.134;11.576;2023-11-19T11:07:19;5.45;;;2.60;;
18499;SDS011;9379;52.134;11.576;2023-11-19T11:09:47;10.38;;;3.22;;
18499;SDS011;9379;52.134;11.576;2023-11-19T11:12:15;8.10;;;3.67;;
18499;SDS011;9379;52.134;11.576;2023-11-19T11:14:50;7.18;;;3.20;;
18499;SDS011;9379;52.134;11.576;2023-11-19T11:17:19;3.83;;;2.72;;
18499;SDS011;9379;52.134;11.576;2023-11-19T11:19:54;4.28;;;2.72;;
18499;SDS011;9379;52.134;11.576;2023-11-19T11:22:21;11.45;;;4.20;;
18499;SDS011;9379;52.134;11.576;2023-11-19T11:24:55;11.63;;;3.95;;
18499;SDS011;9379;52.134;11.576;2023-11-19T11:30:46;10.98;;;6.70;;
18499;SDS011;9379;52.134;11.576;2023-11-19T11:33:26;8.02;;;5.43;;
18499;SDS011;9379;52.134;11.576;2023-11-19T11:36:08;3.42;;;3.13;;
18499;SDS011;9379;52.134;11.576;2023-11-19T11:38:40;3.75;;;2.95;;
18499;SDS011;9379;52.134;11.576;2023-11-19T11:41:18;6.53;;;2.95;;
18499;SDS011;9379;52.134;11.576;2023-11-19T11:43:46;3.50;;;1.60;;
18499;SDS011;9379;52.134;11.576;2023-11-19T11:49:26;8.30;;;3.58;;
18499;SDS011;9379;52.134;11.576;2023-11-19T11:51:58;11.63;;;4.05;;
18499;SDS011;9379;52.134;11.576;2023-11-19T11:54:28;3.55;;;1.80;;
18499;SDS011;9379;52.134;11.576;2023-11-19T11:57:02;12.18;;;3.03;;
18499;SDS011;9379;52.134;11.576;2023-11-19T11:59:47;4.70;;;3.17;;
18499;SDS011;9379;52.134;11.576;2023-11-19T12:02:17;9.38;;;4.18;;
18499;SDS011;9379;52.134;11.576;2023-11-19T12:04:49;3.47;;;1.88;;
18499;SDS011;9379;52.134;11.576;2023-11-19T12:07:17;4.65;;;2.40;;
18499;SDS011;9379;52.134;11.576;2023-11-19T12:09:51;6.95;;;2.72;;
18499;SDS011;9379;52.134;11.576;2023-11-19T12:12:26;6.78;;;3.78;;
18499;SDS011;9379;52.134;11.576;2023-11-19T12:15:00;5.18;;;2.58;;
18499;SDS011;9379;52.134;11.576;2023-11-19T12:17:48;5.80;;;2.20;;
18499;SDS011;9379;52.134;11.576;2023-11-19T12:20:17;10.55;;;2.67;;
18499;SDS011;9379;52.134;11.576;2023-11-19T12:22:45;7.97;;;1.50;;
18499;SDS011;9379;52.134;11.576;2023-11-19T12:25:14;4.78;;;2.47;;
18499;SDS011;9379;52.134;11.576;2023-11-19T12:27:43;14.55;;;3.92;;
18499;SDS011;9379;52.134;11.576;2023-11-19T12:30:11;5.03;;;2.60;;
18499;SDS011;9379;52.134;11.576;2023-11-19T12:32:39;10.10;;;3.55;;
18499;SDS011;9379;52.134;11.576;2023-11-19T12:35:07;11.73;;;3.90;;
18499;SDS011;9379;52.134;11.576;2023-11-19T12:37:44;6.45;;;2.45;;
18499;SDS011;9379;52.134;11.576;2023-11-19T12:40:13;2.17;;;2.08;;
18499;SDS011;9379;52.134;11.576;2023-11-19T12:42:41;7.20;;;3.35;;
18499;SDS011;9379;52.134;11.576;2023-11-19T12:45:08;15.30;;;4.30;;
18499;SDS011;9379;52.134;11.576;2023-11-19T12:47:37;10.68;;;3.78;;
18499;SDS011;9379;52.134;11.576;2023-11-19T12:50:05;4.45;;;2.67;;
18499;SDS011;9379;52.134;11.576;2023-11-19T12:52:33;8.60;;;3.92;;
18499;SDS011;9379;52.134;11.576;2023-11-19T12:55:01;6.93;;;1.98;;
18499;SDS011;9379;52.134;11.576;2023-11-19T12:57:38;7.32;;;2.92;;
18499;SDS011;9379;52.134;11.576;2023-11-19T13:00:06;9.98;;;3.90;;
18499;SDS011;9379;52.134;11.576;2023-11-19T13:02:45;11.32;;;4.75;;
18499;SDS011;9379;52.134;11.576;2023-11-19T13:05:23;6.82;;;3.28;;
18499;SDS011;9379;52.134;11.576;2023-11-19T13:07:57;8.45;;;4.32;;
18499;SDS011;9379;52.134;11.576;2023-11-19T13:10:27;8.80;;;4.65;;
18499;SDS011;9379;52.134;11.576;2023-11-19T13:13:03;21.50;;;4.85;;
18499;SDS011;9379;52.134;11.576;2023-11-19T13:15:31;7.05;;;2.83;;
18499;SDS011;9379;52.134;11.576;2023-11-19T13:17:59;8.93;;;4.13;;
18499;SDS011;9379;52.134;11.576;2023-11-19T13:20:26;4.50;;;2.00;;
18499;SDS011;9379;52.134;11.576;2023-11-19T13:22:54;8.63;;;3.72;;
18499;SDS011;9379;52.134;11.576;2023-11-19T13:25:21;2.45;;;2.25;;
18499;SDS011;9379;52.134;11.576;2023-11-19T13:27:50;5.63;;;3.28;;
18499;SDS011;9379;52.134;11.576;2023-11-19T13:30:17;4.10;;;2.42;;
18499;SDS011;9379;52.134;11.576;2023-11-19T13:32:45;4.75;;;2.42;;
18499;SDS011;9379;52.134;11.576;2023-11-19T13:35:20;9.10;;;2.22;;
18499;SDS011;9379;52.134;11.576;2023-11-19T13:37:47;6.47;;;2.78;;
18499;SDS011;9379;52.134;11.576;2023-11-19T13:40:14;5.70;;;4.75;;
18499;SDS011;9379;52.134;11.576;2023-11-19T13:42:42;8.57;;;3.75;;
18499;SDS011;9379;52.134;11.576;2023-11-19T13:45:11;2.53;;;2.30;;
18499;SDS011;9379;52.134;11.576;2023-11-19T13:47:38;11.05;;;4.75;;
18499;SDS011;9379;52.134;11.576;2023-11-19T13:50:09;5.85;;;2.35;;
18499;SDS011;9379;52.134;11.576;2023-11-19T13:56:01;11.05;;;4.13;;
18499;SDS011;9379;52.134;11.576;2023-11-19T13:58:28;3.28;;;2.67;;
18499;SDS011;9379;52.134;11.576;2023-11-19T14:00:57;5.13;;;1.98;;
18499;SDS011;9379;52.134;11.576;2023-11-19T14:03:24;5.50;;;2.75;;
18499;SDS011;9379;52.134;11.576;2023-11-19T14:05:51;7.25;;;3.25;;
18499;SDS011;9379;52.134;11.576;2023-11-19T14:08:20;8.13;;;3.60;;
18499;SDS011;9379;52.134;11.576;2023-11-19T14:10:47;5.20;;;4.55;;
18499;SDS011;9379;52.134;11.576;2023-11-19T14:13:14;3.85;;;2.08;;
18499;SDS011;9379;52.134;11.576;2023-11-19T14:15:41;7.50;;;3.83;;
18499;SDS011;9379;52.134;11.576;2023-11-19T14:18:10;6.45;;;2.75;;
18499;SDS011;9379;52.134;11.576;2023-11-19T14:20:37;12.38;;;4.68;;
18499;SDS011;9379;52.134;11.576;2023-11-19T14:23:04;11.68;;;3.47;;
18499;SDS011;9379;52.134;11.576;2023-11-19T14:25:31;8.57;;;3.42;;
18499;SDS011;9379;52.134;11.576;2023-11-19T14:27:59;6.80;;;2.85;;
18499;SDS011;9379;52.134;11.576;2023-11-19T14:30:26;4.47;;;2.50;;
18499;SDS011;9379;52.134;11.576;2023-11-19T14:32:53;6.10;;;3.50;;
18499;SDS011;9379;52.134;11.576;2023-11-19T14:35:21;9.63;;;2.90;;
18499;SDS011;9379;52.134;11.576;2023-11-19T14:37:49;7.13;;;3.15;;
18499;SDS011;9379;52.134;11.576;2023-11-19T14:40:16;6.05;;;2.65;;
18499;SDS011;9379;52.134;11.576;2023-11-19T14:42:42;21.73;;;5.53;;
18499;SDS011;9379;52.134;11.576;2023-11-19T14:45:09;2.90;;;2.47;;
18499;SDS011;9379;52.134;11.576;2023-11-19T14:47:37;8.13;;;3.10;;
18499;SDS011;9379;52.134;11.576;2023-11-19T14:50:05;8.85;;;4.15;;
18499;SDS011;9379;52.134;11.576;2023-11-19T14:52:35;3.55;;;1.90;;
18499;SDS011;9379;52.134;11.576;2023-11-19T14:55:02;6.65;;;3.50;;
18499;SDS011;9379;52.134;11.576;2023-11-19T14:57:30;10.32;;;3.28;;
18499;SDS011;9379;52.134;11.576;2023-11-19T14:59:57;4.15;;;3.13;;
18499;SDS011;9379;52.134;11.576;2023-11-19T15:02:24;3.45;;;2.70;;
18499;SDS011;9379;52.134;11.576;2023-11-19T15:04:51;3.47;;;2.55;;